Time;durP1;ratioP1;P1;durP2;ratioP2;P2;SDS_P1;SDS_P2;PMS_P1;PMS_P2;Temp;Humidity;BMP_temperature;BMP_pressure;BME280_temperature;BME280_humidity;BME280_pressure;Samples;Min_cycle;Max_cycle;Signal;HPM_P1;HPM_P2
2022/03/25 00:00:33;;;;;;;53.10;24.58;;;;;;;;;;5053430;28;20025;-73
2022/03/25 00:02:59;;;;;;;49.00;24.73;;;;;;;;;;5053576;28;20420;-73
2022/03/25 00:05:25;;;;;;;47.38;24.13;;;;;;;;;;5053319;28;20419;-73
2022/03/25 00:07:51;;;;;;;50.13;24.08;;;;;;;;;;5053209;28;20444;-73
2022/03/25 00:10:19;;;;;;;57.10;24.45;;;;;;;;;;5052025;28;20025;-74
2022/03/25 00:12:45;;;;;;;51.92;25.33;;;;;;;;;;5053139;28;20070;-73
2022/03/25 00:15:11;;;;;;;49.28;24.02;;;;;;;;;;5053303;28;20053;-74
2022/03/25 00:17:37;;;;;;;56.10;25.50;;;;;;;;;;5053254;28;20052;-73
2022/03/25 00:20:04;;;;;;;54.50;24.40;;;;;;;;;;5053149;28;20135;-73
2022/03/25 00:22:30;;;;;;;49.13;24.63;;;;;;;;;;5053197;28;20107;-73
2022/03/25 00:24:56;;;;;;;53.08;26.10;;;;;;;;;;5052900;28;20056;-74
2022/03/25 00:27:23;;;;;;;52.63;26.20;;;;;;;;;;5052183;28;20060;-73
2022/03/25 00:29:49;;;;;;;48.08;25.83;;;;;;;;;;5052975;28;20048;-73
2022/03/25 00:32:16;;;;;;;51.78;25.95;;;;;;;;;;5052962;28;20028;-74
2022/03/25 00:34:43;;;;;;;55.35;27.40;;;;;;;;;;5052933;28;20028;-73
2022/03/25 00:37:10;;;;;;;52.60;25.67;;;;;;;;;;5052883;28;20021;-73
2022/03/25 00:39:36;;;;;;;54.40;25.30;;;;;;;;;;5052633;28;20129;-73
2022/03/25 00:42:03;;;;;;;53.88;26.90;;;;;;;;;;5036046;28;20028;-73
2022/03/25 00:44:30;;;;;;;60.92;26.10;;;;;;;;;;5032926;28;20025;-73
2022/03/25 00:46:56;;;;;;;53.80;26.83;;;;;;;;;;5032727;28;20025;-73
2022/03/25 00:49:22;;;;;;;57.75;28.38;;;;;;;;;;5032723;28;20033;-73
2022/03/25 00:51:48;;;;;;;52.03;26.70;;;;;;;;;;5032561;28;20053;-73
2022/03/25 00:54:14;;;;;;;55.30;27.77;;;;;;;;;;5032576;28;20029;-73
2022/03/25 00:56:40;;;;;;;58.42;28.95;;;;;;;;;;5032510;28;20116;-73
2022/03/25 00:59:08;;;;;;;56.75;28.33;;;;;;;;;;5032510;28;20106;-73
2022/03/25 01:01:34;;;;;;;60.47;28.48;;;;;;;;;;5032540;28;20039;-73
2022/03/25 01:04:00;;;;;;;52.53;27.13;;;;;;;;;;5032404;28;20034;-73
2022/03/25 01:06:26;;;;;;;58.38;27.45;;;;;;;;;;5032474;28;20041;-73
2022/03/25 01:08:52;;;;;;;58.25;28.45;;;;;;;;;;5032393;28;20080;-73
2022/03/25 01:11:18;;;;;;;61.35;29.20;;;;;;;;;;5032193;28;20718;-73
2022/03/25 01:13:44;;;;;;;57.80;29.92;;;;;;;;;;5043839;28;20039;-73
2022/03/25 01:16:10;;;;;;;60.58;28.55;;;;;;;;;;5052239;28;20135;-73
2022/03/25 01:18:36;;;;;;;59.30;29.30;;;;;;;;;;5052194;28;20053;-74
2022/03/25 01:21:03;;;;;;;57.47;30.90;;;;;;;;;;5051989;28;20082;-73
2022/03/25 01:23:29;;;;;;;59.47;29.10;;;;;;;;;;5052132;28;20035;-73
2022/03/25 01:25:55;;;;;;;59.40;28.27;;;;;;;;;;5051723;28;20087;-73
2022/03/25 01:28:21;;;;;;;61.63;30.08;;;;;;;;;;5052099;28;20028;-73
2022/03/25 01:30:47;;;;;;;66.95;29.55;;;;;;;;;;5051809;28;20021;-74
2022/03/25 01:33:14;;;;;;;66.50;30.15;;;;;;;;;;5051957;28;20021;-73
2022/03/25 01:35:41;;;;;;;61.63;28.98;;;;;;;;;;5051738;28;20056;-73
2022/03/25 01:38:07;;;;;;;69.80;31.33;;;;;;;;;;5051321;28;20047;-73
2022/03/25 01:40:33;;;;;;;70.65;31.60;;;;;;;;;;5051585;28;20017;-73
2022/03/25 01:42:59;;;;;;;66.00;31.50;;;;;;;;;;5051718;28;20024;-73
2022/03/25 01:45:36;;;;;;;67.75;31.92;;;;;;;;;;5051574;28;20399;-74
2022/03/25 01:48:04;;;;;;;75.28;33.28;;;;;;;;;;5051748;28;20029;-74
2022/03/25 01:50:30;;;;;;;65.45;32.33;;;;;;;;;;5051673;28;20032;-73
2022/03/25 01:52:56;;;;;;;69.22;31.15;;;;;;;;;;5051630;28;20030;-73
2022/03/25 01:55:27;;;;;;;70.07;33.75;;;;;;;;;;5051577;28;20112;-73
2022/03/25 01:57:55;;;;;;;67.22;33.85;;;;;;;;;;5051504;28;20341;-73
2022/03/25 02:00:23;;;;;;;67.85;33.13;;;;;;;;;;5051596;28;20032;-73
2022/03/25 02:02:49;;;;;;;76.55;34.78;;;;;;;;;;5051557;28;20083;-73
2022/03/25 02:05:17;;;;;;;75.63;34.22;;;;;;;;;;5051520;28;20535;-73
2022/03/25 02:07:43;;;;;;;82.57;36.53;;;;;;;;;;5051465;28;20025;-73
2022/03/25 02:10:10;;;;;;;81.55;35.17;;;;;;;;;;5051453;28;20044;-73
2022/03/25 02:12:36;;;;;;;78.55;35.78;;;;;;;;;;5051285;28;20090;-73
2022/03/25 02:15:05;;;;;;;77.78;37.78;;;;;;;;;;5051558;28;20051;-73
2022/03/25 02:17:32;;;;;;;78.47;36.70;;;;;;;;;;5051408;28;20475;-73
2022/03/25 02:19:58;;;;;;;79.75;36.75;;;;;;;;;;5051268;28;20036;-73
2022/03/25 02:22:25;;;;;;;80.63;38.05;;;;;;;;;;5051158;28;20029;-74
2022/03/25 02:24:51;;;;;;;81.82;37.90;;;;;;;;;;5049746;28;20435;-73
2022/03/25 02:27:17;;;;;;;79.45;36.80;;;;;;;;;;5051234;28;20036;-73
2022/03/25 02:29:44;;;;;;;81.43;39.13;;;;;;;;;;5051196;28;20451;-73
2022/03/25 02:32:10;;;;;;;83.03;38.85;;;;;;;;;;5051400;28;20029;-74
2022/03/25 02:34:37;;;;;;;76.80;37.70;;;;;;;;;;5051289;28;20160;-73
2022/03/25 02:37:04;;;;;;;83.90;37.28;;;;;;;;;;5051046;28;20479;-74
2022/03/25 02:39:30;;;;;;;86.18;38.88;;;;;;;;;;5053015;28;20064;-73
2022/03/25 02:41:56;;;;;;;82.15;38.20;;;;;;;;;;5035282;28;20037;-73
2022/03/25 02:44:22;;;;;;;81.47;39.47;;;;;;;;;;5031232;28;20029;-74
2022/03/25 02:46:48;;;;;;;84.57;39.50;;;;;;;;;;5031424;28;20017;-74
2022/03/25 02:49:15;;;;;;;91.57;40.35;;;;;;;;;;5032286;28;20429;-74
2022/03/25 02:51:41;;;;;;;86.70;40.70;;;;;;;;;;5034996;28;20017;-73
2022/03/25 02:54:08;;;;;;;89.80;43.38;;;;;;;;;;5034915;28;20033;-74
2022/03/25 02:56:34;;;;;;;93.63;43.03;;;;;;;;;;5016784;28;20029;-73
2022/03/25 02:59:00;;;;;;;97.43;43.75;;;;;;;;;;5034873;28;20483;-73
2022/03/25 03:01:27;;;;;;;96.85;44.03;;;;;;;;;;5034678;28;20043;-73
2022/03/25 03:03:53;;;;;;;85.93;41.20;;;;;;;;;;5034802;28;20014;-74
2022/03/25 03:06:19;;;;;;;95.43;44.28;;;;;;;;;;5034689;28;20021;-73
2022/03/25 03:08:45;;;;;;;100.68;45.88;;;;;;;;;;5016824;28;20034;-73
2022/03/25 03:11:12;;;;;;;99.30;44.00;;;;;;;;;;5034502;28;20021;-73
2022/03/25 03:13:38;;;;;;;96.57;42.83;;;;;;;;;;5045332;28;20029;-73
2022/03/25 03:16:06;;;;;;;95.15;42.60;;;;;;;;;;5054327;28;20050;-74
2022/03/25 03:18:32;;;;;;;99.97;44.20;;;;;;;;;;5054384;28;20064;-73
2022/03/25 03:20:59;;;;;;;97.00;44.30;;;;;;;;;;5054097;28;20112;-73
2022/03/25 03:23:25;;;;;;;99.90;45.72;;;;;;;;;;5054350;28;20040;-73
2022/03/25 03:25:51;;;;;;;105.00;45.58;;;;;;;;;;5053999;28;20029;-74
2022/03/25 03:28:17;;;;;;;99.10;44.83;;;;;;;;;;5054125;28;20021;-74
2022/03/25 03:30:43;;;;;;;107.28;46.28;;;;;;;;;;5054089;28;20025;-73
2022/03/25 03:33:09;;;;;;;105.22;45.60;;;;;;;;;;5054064;28;20048;-74
2022/03/25 03:35:35;;;;;;;102.05;46.30;;;;;;;;;;5035914;28;20021;-74
2022/03/25 03:38:01;;;;;;;105.80;47.13;;;;;;;;;;5057390;28;20052;-74
2022/03/25 03:40:28;;;;;;;101.50;46.55;;;;;;;;;;5054053;28;20367;-73
2022/03/25 03:42:54;;;;;;;104.90;46.55;;;;;;;;;;5053815;28;20033;-73
2022/03/25 03:45:21;;;;;;;110.53;48.30;;;;;;;;;;5053964;28;20017;-74
2022/03/25 03:47:47;;;;;;;114.47;50.20;;;;;;;;;;5053697;28;20025;-73
2022/03/25 03:50:14;;;;;;;132.65;50.60;;;;;;;;;;5052372;28;20079;-74
2022/03/25 03:52:41;;;;;;;119.75;51.10;;;;;;;;;;5053710;28;20021;-74
2022/03/25 03:55:07;;;;;;;103.88;46.88;;;;;;;;;;5053649;28;20040;-74
2022/03/25 03:57:35;;;;;;;117.22;49.45;;;;;;;;;;5053560;28;20040;-73
2022/03/25 04:00:01;;;;;;;104.35;47.47;;;;;;;;;;5053143;28;20029;-73
2022/03/25 04:02:27;;;;;;;108.10;48.28;;;;;;;;;;5052154;28;20036;-74
2022/03/25 04:04:53;;;;;;;109.65;48.05;;;;;;;;;;5053527;28;20021;-74
2022/03/25 04:07:19;;;;;;;116.22;50.50;;;;;;;;;;5053321;28;20025;-74
2022/03/25 04:09:45;;;;;;;115.13;48.45;;;;;;;;;;5053510;28;20021;-73
2022/03/25 04:12:13;;;;;;;109.43;48.30;;;;;;;;;;5053361;28;20021;-73
2022/03/25 04:14:39;;;;;;;113.72;49.78;;;;;;;;;;5053081;28;20044;-74
2022/03/25 04:17:05;;;;;;;112.38;48.78;;;;;;;;;;5053298;28;20103;-74
2022/03/25 04:19:31;;;;;;;120.25;51.40;;;;;;;;;;5053107;28;20499;-74
2022/03/25 04:21:58;;;;;;;104.82;46.92;;;;;;;;;;5052993;28;20059;-73
2022/03/25 04:24:24;;;;;;;114.35;49.22;;;;;;;;;;5053141;28;20029;-74
2022/03/25 04:26:50;;;;;;;113.00;50.28;;;;;;;;;;5052966;28;20489;-74
2022/03/25 04:29:18;;;;;;;124.38;50.67;;;;;;;;;;5052908;28;20032;-74
2022/03/25 04:31:44;;;;;;;124.30;53.88;;;;;;;;;;5053105;28;20036;-74
2022/03/25 04:34:10;;;;;;;117.15;50.47;;;;;;;;;;5052893;28;20087;-74
2022/03/25 04:36:37;;;;;;;132.32;53.38;;;;;;;;;;5052787;28;20487;-74
2022/03/25 04:39:03;;;;;;;113.28;50.60;;;;;;;;;;5052672;28;20068;-74
2022/03/25 04:41:29;;;;;;;123.28;51.72;;;;;;;;;;5040767;28;20104;-74
2022/03/25 04:43:55;;;;;;;113.50;51.08;;;;;;;;;;5032893;28;20029;-74
2022/03/25 04:46:21;;;;;;;116.80;49.78;;;;;;;;;;5032783;28;20022;-74
2022/03/25 04:48:47;;;;;;;108.80;48.38;;;;;;;;;;5032855;28;20036;-74
2022/03/25 04:51:13;;;;;;;119.13;48.78;;;;;;;;;;5032678;28;20030;-73
2022/03/25 04:53:39;;;;;;;123.20;50.67;;;;;;;;;;5032697;28;20449;-74
2022/03/25 04:56:06;;;;;;;123.10;51.13;;;;;;;;;;5032461;28;20017;-74
2022/03/25 04:58:32;;;;;;;106.75;46.15;;;;;;;;;;5032740;28;20026;-73
2022/03/25 05:00:58;;;;;;;105.90;47.58;;;;;;;;;;5032466;28;20478;-74
2022/03/25 05:03:24;;;;;;;117.60;48.63;;;;;;;;;;5032656;28;20070;-74
2022/03/25 05:05:50;;;;;;;117.50;48.70;;;;;;;;;;5032394;28;20033;-74
2022/03/25 05:08:17;;;;;;;119.38;48.47;;;;;;;;;;5032517;28;20021;-73
2022/03/25 05:10:43;;;;;;;113.18;48.10;;;;;;;;;;5032384;28;20116;-73
2022/03/25 05:13:09;;;;;;;117.32;47.97;;;;;;;;;;5038261;28;20037;-73
2022/03/25 05:15:35;;;;;;;108.45;47.10;;;;;;;;;;5052154;28;20032;-74
2022/03/25 05:18:01;;;;;;;112.40;46.47;;;;;;;;;;5052238;28;20499;-74
2022/03/25 05:20:27;;;;;;;99.53;45.28;;;;;;;;;;5052046;28;20032;-74
2022/03/25 05:22:54;;;;;;;99.65;44.03;;;;;;;;;;5052146;28;20120;-74
2022/03/25 05:25:21;;;;;;;107.35;44.75;;;;;;;;;;5051893;28;20091;-74
2022/03/25 05:27:51;;;;;;;98.47;43.90;;;;;;;;;;5051772;28;20085;-74
2022/03/25 05:30:19;;;;;;;110.53;45.80;;;;;;;;;;5051904;28;20079;-74
2022/03/25 05:32:45;;;;;;;106.82;46.78;;;;;;;;;;5052063;28;20091;-74
2022/03/25 05:35:11;;;;;;;100.65;44.00;;;;;;;;;;5051918;28;20043;-74
2022/03/25 05:37:38;;;;;;;98.43;44.58;;;;;;;;;;5051890;28;20036;-74
2022/03/25 05:40:05;;;;;;;114.15;45.58;;;;;;;;;;5053526;28;20529;-74
2022/03/25 05:42:31;;;;;;;106.43;46.15;;;;;;;;;;5051613;28;20039;-74
2022/03/25 05:44:57;;;;;;;95.82;42.53;;;;;;;;;;5051746;28;20029;-74
2022/03/25 05:47:23;;;;;;;109.07;46.80;;;;;;;;;;5051675;28;20155;-74
2022/03/25 05:49:49;;;;;;;122.32;50.03;;;;;;;;;;5051597;28;20028;-74
2022/03/25 05:52:15;;;;;;;129.10;51.33;;;;;;;;;;5051634;28;20037;-74
2022/03/25 05:54:41;;;;;;;151.45;58.03;;;;;;;;;;5051628;28;20036;-74
2022/03/25 05:57:07;;;;;;;185.50;66.78;;;;;;;;;;5050130;28;20076;-74
2022/03/25 05:59:33;;;;;;;178.50;69.43;;;;;;;;;;5050190;28;20029;-74
2022/03/25 06:01:59;;;;;;;169.15;62.53;;;;;;;;;;5050167;28;20076;-74
2022/03/25 06:04:25;;;;;;;179.98;67.18;;;;;;;;;;5051508;28;20032;-74
2022/03/25 06:06:51;;;;;;;169.18;64.82;;;;;;;;;;5051424;28;20025;-74
2022/03/25 06:09:17;;;;;;;179.77;69.47;;;;;;;;;;5051493;28;20025;-74
2022/03/25 06:11:44;;;;;;;194.07;69.43;;;;;;;;;;5049956;28;20356;-73
2022/03/25 06:14:10;;;;;;;199.15;74.03;;;;;;;;;;5051340;28;20016;-74
2022/03/25 06:16:36;;;;;;;182.90;71.38;;;;;;;;;;5051486;28;20052;-74
2022/03/25 06:19:02;;;;;;;192.43;72.70;;;;;;;;;;5051370;28;20328;-74
2022/03/25 06:21:28;;;;;;;174.70;68.68;;;;;;;;;;5051227;28;20040;-74
2022/03/25 06:23:54;;;;;;;177.90;68.03;;;;;;;;;;5053427;28;20382;-74
2022/03/25 06:26:20;;;;;;;184.35;71.40;;;;;;;;;;5055177;28;20119;-73
2022/03/25 06:28:46;;;;;;;175.32;69.20;;;;;;;;;;5055346;28;20105;-74
2022/03/25 06:31:13;;;;;;;177.57;69.93;;;;;;;;;;5055159;28;20082;-73
2022/03/25 06:33:40;;;;;;;175.02;69.05;;;;;;;;;;5055247;28;20021;-74
2022/03/25 06:36:13;;;;;;;187.57;71.60;;;;;;;;;;5055095;28;20036;-73
2022/03/25 06:38:43;;;;;;;167.75;70.80;;;;;;;;;;5054944;28;20029;-73
2022/03/25 06:41:09;;;;;;;165.77;66.90;;;;;;;;;;5045711;28;20037;-73
2022/03/25 06:43:36;;;;;;;155.40;64.70;;;;;;;;;;5035271;28;20022;-74
2022/03/25 06:46:04;;;;;;;160.15;67.30;;;;;;;;;;5035135;28;20033;-74
2022/03/25 06:48:30;;;;;;;155.18;66.68;;;;;;;;;;5017291;28;20036;-74
2022/03/25 06:50:56;;;;;;;145.50;65.63;;;;;;;;;;5034844;28;20022;-74
2022/03/25 06:53:22;;;;;;;150.32;65.32;;;;;;;;;;5035001;28;20025;-74
2022/03/25 06:55:49;;;;;;;143.63;64.93;;;;;;;;;;5016900;28;20044;-74
2022/03/25 06:58:15;;;;;;;139.48;63.17;;;;;;;;;;5017048;28;20392;-74
2022/03/25 07:00:41;;;;;;;143.20;65.70;;;;;;;;;;5034857;28;20030;-74
2022/03/25 07:03:07;;;;;;;136.13;61.15;;;;;;;;;;5034679;28;20053;-74
2022/03/25 07:05:36;;;;;;;131.75;60.55;;;;;;;;;;5034675;28;20108;-74
2022/03/25 07:08:02;;;;;;;122.03;59.58;;;;;;;;;;5034717;28;20097;-74
2022/03/25 07:10:28;;;;;;;125.20;58.95;;;;;;;;;;5034634;28;20029;-74
2022/03/25 07:12:54;;;;;;;118.10;54.25;;;;;;;;;;5039165;28;20056;-74
2022/03/25 07:15:21;;;;;;;120.70;58.60;;;;;;;;;;5054477;28;20017;-74
2022/03/25 07:17:47;;;;;;;112.55;55.90;;;;;;;;;;5054488;28;20541;-74
2022/03/25 07:20:14;;;;;;;117.45;57.38;;;;;;;;;;5054340;28;20075;-74
2022/03/25 07:22:44;;;;;;;113.45;54.95;;;;;;;;;;5036076;28;20033;-74
2022/03/25 07:25:11;;;;;;;102.43;52.40;;;;;;;;;;5054225;28;20033;-74
2022/03/25 07:27:37;;;;;;;102.35;52.25;;;;;;;;;;5054005;28;20379;-74
2022/03/25 07:30:04;;;;;;;98.25;51.25;;;;;;;;;;5054085;28;20052;-74
2022/03/25 07:32:30;;;;;;;102.90;51.83;;;;;;;;;;5054278;28;20029;-74
2022/03/25 07:34:56;;;;;;;102.00;50.50;;;;;;;;;;5053372;28;20056;-73
2022/03/25 07:37:23;;;;;;;97.68;50.15;;;;;;;;;;5053968;28;20037;-73
2022/03/25 07:39:49;;;;;;;103.05;50.63;;;;;;;;;;5053947;28;20431;-73
2022/03/25 07:42:15;;;;;;;90.15;48.25;;;;;;;;;;5053730;28;20489;-73
2022/03/25 07:44:41;;;;;;;83.53;47.38;;;;;;;;;;5052462;28;20407;-73
2022/03/25 07:47:08;;;;;;;84.15;47.47;;;;;;;;;;5053961;28;20466;-73
2022/03/25 07:49:35;;;;;;;96.35;48.92;;;;;;;;;;5053863;28;20108;-73
2022/03/25 07:52:02;;;;;;;80.90;44.28;;;;;;;;;;5053615;28;20021;-73
2022/03/25 07:54:29;;;;;;;90.53;48.53;;;;;;;;;;5053758;28;20091;-73
2022/03/25 07:56:57;;;;;;;87.18;47.08;;;;;;;;;;5053679;28;20029;-73
2022/03/25 07:59:23;;;;;;;88.75;49.33;;;;;;;;;;5053689;28;20075;-74
2022/03/25 08:01:49;;;;;;;87.05;47.83;;;;;;;;;;5053498;28;20422;-73
2022/03/25 08:04:16;;;;;;;93.53;47.45;;;;;;;;;;5053550;28;20036;-73
2022/03/25 08:06:42;;;;;;;86.22;45.75;;;;;;;;;;5053474;28;20017;-74
2022/03/25 08:09:08;;;;;;;82.53;46.50;;;;;;;;;;5053478;28;20032;-73
2022/03/25 08:11:34;;;;;;;83.82;45.22;;;;;;;;;;5053291;28;20037;-74
2022/03/25 08:14:00;;;;;;;83.45;46.65;;;;;;;;;;5053218;28;20021;-73
2022/03/25 08:16:26;;;;;;;76.38;44.55;;;;;;;;;;5053296;28;20035;-73
2022/03/25 08:18:52;;;;;;;76.80;44.60;;;;;;;;;;5053256;28;20110;-74
2022/03/25 08:21:19;;;;;;;76.78;43.40;;;;;;;;;;5053226;28;20025;-74
2022/03/25 08:29:16;;;;;;;74.57;42.00;;;;;;;;;;5053186;28;20278;-74
2022/03/25 08:31:42;;;;;;;69.72;39.63;;;;;;;;;;5053060;28;20515;-73
2022/03/25 08:34:13;;;;;;;75.90;39.92;;;;;;;;;;5053068;28;20394;-73
2022/03/25 08:36:39;;;;;;;69.45;40.33;;;;;;;;;;5052969;28;20025;-73
2022/03/25 08:39:05;;;;;;;72.18;39.00;;;;;;;;;;5054713;28;20063;-73
2022/03/25 08:41:31;;;;;;;73.10;40.28;;;;;;;;;;5040437;28;20030;-73
2022/03/25 08:43:57;;;;;;;67.03;39.28;;;;;;;;;;5032741;28;20380;-73
2022/03/25 08:46:23;;;;;;;70.25;38.03;;;;;;;;;;5032098;28;20017;-74
2022/03/25 08:48:49;;;;;;;66.72;36.72;;;;;;;;;;5032669;28;20026;-74
2022/03/25 08:51:16;;;;;;;65.90;37.83;;;;;;;;;;5032626;28;20033;-73
2022/03/25 08:53:43;;;;;;;67.88;38.80;;;;;;;;;;5032867;28;20129;-73
2022/03/25 08:56:10;;;;;;;63.63;37.30;;;;;;;;;;5032560;28;20537;-74
2022/03/25 08:58:36;;;;;;;69.15;37.55;;;;;;;;;;5032491;28;20103;-73
2022/03/25 09:01:02;;;;;;;64.65;37.00;;;;;;;;;;5032393;28;20049;-73
2022/03/25 09:03:28;;;;;;;63.72;35.85;;;;;;;;;;5032695;28;20116;-73
2022/03/25 09:05:54;;;;;;;62.67;35.83;;;;;;;;;;5032383;28;20060;-74
2022/03/25 09:08:21;;;;;;;63.95;35.92;;;;;;;;;;5032398;28;20018;-73
2022/03/25 09:10:48;;;;;;;56.42;33.63;;;;;;;;;;5032256;28;20026;-73
2022/03/25 09:13:14;;;;;;;63.33;35.83;;;;;;;;;;5021636;28;20033;-73
2022/03/25 09:15:40;;;;;;;56.88;34.42;;;;;;;;;;5052193;28;20040;-73
2022/03/25 09:18:06;;;;;;;60.67;35.40;;;;;;;;;;5052286;28;20029;-73
2022/03/25 09:20:32;;;;;;;61.85;36.08;;;;;;;;;;5052097;28;20033;-73
2022/03/25 09:22:58;;;;;;;60.95;36.50;;;;;;;;;;5052033;28;20028;-73
2022/03/25 09:25:24;;;;;;;58.80;36.13;;;;;;;;;;5051905;28;20037;-73
2022/03/25 09:27:51;;;;;;;65.78;35.78;;;;;;;;;;5051921;28;20017;-73
2022/03/25 09:30:17;;;;;;;66.72;35.67;;;;;;;;;;5051814;28;20029;-73
2022/03/25 09:32:43;;;;;;;56.75;34.70;;;;;;;;;;5051930;28;20041;-74
2022/03/25 09:35:09;;;;;;;58.35;35.03;;;;;;;;;;5051789;28;20124;-73
2022/03/25 09:37:39;;;;;;;61.92;35.97;;;;;;;;;;5051827;28;20025;-73
2022/03/25 09:40:07;;;;;;;63.80;36.03;;;;;;;;;;5051518;28;20040;-73
2022/03/25 09:42:33;;;;;;;58.22;35.63;;;;;;;;;;5050415;28;20036;-73
2022/03/25 09:45:01;;;;;;;62.63;37.45;;;;;;;;;;5051827;28;20371;-74
2022/03/25 09:47:27;;;;;;;58.85;35.45;;;;;;;;;;5051842;28;20319;-74
2022/03/25 09:49:53;;;;;;;60.08;36.78;;;;;;;;;;5051743;28;20100;-73
2022/03/25 09:52:19;;;;;;;70.05;39.35;;;;;;;;;;5051645;28;20053;-73
2022/03/25 09:54:45;;;;;;;60.20;36.28;;;;;;;;;;5051723;28;20033;-73
2022/03/25 09:57:11;;;;;;;58.80;35.55;;;;;;;;;;5051521;28;20021;-74
2022/03/25 09:59:37;;;;;;;61.70;37.15;;;;;;;;;;5051293;28;20032;-74
2022/03/25 10:02:04;;;;;;;62.50;38.10;;;;;;;;;;5051474;28;20033;-74
2022/03/25 10:04:39;;;;;;;65.38;36.75;;;;;;;;;;5050123;28;20048;-73
2022/03/25 10:07:23;;;;;;;63.08;36.70;;;;;;;;;;5051514;28;20513;-73
2022/03/25 10:09:50;;;;;;;66.65;38.47;;;;;;;;;;5051496;28;20036;-74
2022/03/25 10:12:24;;;;;;;61.97;36.80;;;;;;;;;;5051467;28;20029;-73
2022/03/25 10:14:51;;;;;;;62.17;35.78;;;;;;;;;;5051474;28;20032;-73
2022/03/25 10:17:18;;;;;;;58.90;34.22;;;;;;;;;;5051486;28;20028;-74
2022/03/25 10:19:54;;;;;;;56.88;35.47;;;;;;;;;;5051190;28;20035;-73
2022/03/25 10:22:21;;;;;;;60.22;36.05;;;;;;;;;;5051172;28;20033;-73
2022/03/25 10:24:52;;;;;;;61.47;34.78;;;;;;;;;;5051450;28;20029;-73
2022/03/25 10:27:28;;;;;;;63.00;33.78;;;;;;;;;;5051119;28;20430;-73
2022/03/25 10:29:57;;;;;;;60.65;36.53;;;;;;;;;;5051103;28;20055;-73
2022/03/25 10:32:25;;;;;;;54.55;33.22;;;;;;;;;;5051300;28;20033;-73
2022/03/25 10:35:00;;;;;;;63.63;35.47;;;;;;;;;;5051412;28;20029;-73
2022/03/25 10:37:28;;;;;;;63.95;33.88;;;;;;;;;;5051169;28;20029;-73
2022/03/25 10:39:54;;;;;;;58.42;34.42;;;;;;;;;;5053147;28;20053;-74
2022/03/25 10:42:20;;;;;;;53.17;31.65;;;;;;;;;;5032198;28;20034;-73
2022/03/25 10:44:46;;;;;;;54.92;32.22;;;;;;;;;;5031250;28;20399;-73
2022/03/25 10:47:16;;;;;;;60.88;32.72;;;;;;;;;;5031288;28;20100;-73
2022/03/25 10:49:43;;;;;;;57.90;32.95;;;;;;;;;;5031278;28;20479;-74
2022/03/25 10:52:22;;;;;;;52.08;30.38;;;;;;;;;;5031044;28;20021;-73
2022/03/25 10:54:48;;;;;;;52.00;29.15;;;;;;;;;;5031167;28;20045;-73
2022/03/25 10:57:15;;;;;;;46.47;26.15;;;;;;;;;;5031074;28;20072;-74
2022/03/25 10:59:41;;;;;;;52.58;30.17;;;;;;;;;;5031170;28;20029;-74
2022/03/25 11:02:11;;;;;;;57.60;27.30;;;;;;;;;;5031067;28;20079;-73
2022/03/25 11:04:37;;;;;;;53.22;27.23;;;;;;;;;;5031114;28;20017;-73
2022/03/25 11:07:04;;;;;;;49.33;28.00;;;;;;;;;;5013256;28;20017;-73
2022/03/25 11:09:30;;;;;;;54.55;27.40;;;;;;;;;;5031086;28;20029;-73
2022/03/25 11:11:57;;;;;;;38.88;24.13;;;;;;;;;;5034457;28;20086;-74
2022/03/25 11:14:23;;;;;;;51.33;24.73;;;;;;;;;;5051396;28;20024;-74
2022/03/25 11:16:49;;;;;;;44.13;25.38;;;;;;;;;;5054484;28;20032;-74
2022/03/25 11:19:15;;;;;;;46.30;24.42;;;;;;;;;;5054407;28;20052;-74
2022/03/25 11:21:42;;;;;;;44.92;24.52;;;;;;;;;;5036260;28;20407;-74
2022/03/25 11:24:14;;;;;;;47.67;25.02;;;;;;;;;;5054537;28;20044;-74
2022/03/25 11:26:43;;;;;;;44.15;25.17;;;;;;;;;;5054119;28;20029;-74
2022/03/25 11:29:12;;;;;;;45.95;25.65;;;;;;;;;;5054339;28;20494;-74
2022/03/25 11:31:56;;;;;;;54.20;26.08;;;;;;;;;;5054250;28;20029;-74
2022/03/25 11:34:26;;;;;;;41.40;24.75;;;;;;;;;;5054149;28;20060;-73
2022/03/25 11:37:12;;;;;;;49.08;25.30;;;;;;;;;;5054174;28;20021;-74
2022/03/25 11:39:38;;;;;;;56.10;25.70;;;;;;;;;;5053795;28;20056;-73
2022/03/25 11:42:06;;;;;;;45.00;24.83;;;;;;;;;;5053801;28;20059;-73
2022/03/25 11:44:33;;;;;;;48.75;24.33;;;;;;;;;;5053950;28;20044;-74
2022/03/25 11:46:59;;;;;;;46.30;22.30;;;;;;;;;;5053946;28;20032;-74
2022/03/25 11:49:26;;;;;;;37.38;23.00;;;;;;;;;;5053868;28;20033;-73
2022/03/25 11:51:52;;;;;;;47.03;25.10;;;;;;;;;;5053750;28;20048;-74
2022/03/25 11:54:38;;;;;;;44.72;24.70;;;;;;;;;;5053837;28;20033;-74
2022/03/25 11:57:05;;;;;;;47.90;25.38;;;;;;;;;;5052405;28;20101;-74
2022/03/25 11:59:47;;;;;;;52.10;25.80;;;;;;;;;;5053805;28;20025;-73
2022/03/25 12:02:27;;;;;;;42.80;25.70;;;;;;;;;;5053728;28;20075;-74
2022/03/25 12:04:53;;;;;;;52.28;26.42;;;;;;;;;;5053556;28;20036;-74
2022/03/25 12:07:19;;;;;;;53.17;27.13;;;;;;;;;;5053547;28;20027;-74
2022/03/25 12:09:46;;;;;;;46.22;24.85;;;;;;;;;;5053626;28;20731;-74
2022/03/25 12:12:12;;;;;;;52.05;24.95;;;;;;;;;;5053447;28;20151;-74
2022/03/25 12:14:58;;;;;;;42.67;22.52;;;;;;;;;;5053367;28;20143;-74
2022/03/25 12:17:25;;;;;;;54.92;24.08;;;;;;;;;;5053295;28;20037;-74
2022/03/25 12:19:53;;;;;;;42.92;23.98;;;;;;;;;;5053319;28;20032;-74
2022/03/25 12:22:19;;;;;;;45.08;24.48;;;;;;;;;;5053018;28;20086;-74
2022/03/25 12:24:56;;;;;;;42.03;23.17;;;;;;;;;;5052979;28;20378;-74
2022/03/25 12:27:23;;;;;;;46.03;23.75;;;;;;;;;;5053010;28;20025;-74
2022/03/25 12:29:54;;;;;;;44.67;22.98;;;;;;;;;;5053051;28;20037;-74
2022/03/25 12:32:21;;;;;;;41.58;22.70;;;;;;;;;;5053187;28;20075;-74
2022/03/25 12:34:54;;;;;;;40.50;23.40;;;;;;;;;;5052990;28;20033;-74
2022/03/25 12:37:33;;;;;;;46.47;23.58;;;;;;;;;;5053005;28;20025;-74
2022/03/25 12:40:17;;;;;;;41.90;23.60;;;;;;;;;;5054716;28;20041;-74
2022/03/25 12:42:43;;;;;;;43.08;22.65;;;;;;;;;;5032808;28;20480;-74
2022/03/25 12:45:10;;;;;;;38.60;22.05;;;;;;;;;;5032818;28;20087;-74
2022/03/25 12:47:36;;;;;;;40.15;21.70;;;;;;;;;;5014994;28;20040;-74
2022/03/25 12:50:03;;;;;;;41.42;22.52;;;;;;;;;;5032813;28;20036;-74
2022/03/25 12:52:29;;;;;;;36.17;20.17;;;;;;;;;;5032643;28;20404;-74
2022/03/25 12:55:05;;;;;;;37.67;22.55;;;;;;;;;;5014718;28;20399;-73
2022/03/25 12:57:32;;;;;;;37.70;21.23;;;;;;;;;;5032644;28;20352;-74
2022/03/25 12:59:58;;;;;;;41.00;20.92;;;;;;;;;;5032594;28;20032;-74
2022/03/25 13:02:34;;;;;;;40.13;21.45;;;;;;;;;;5032620;28;20080;-73
2022/03/25 13:05:14;;;;;;;42.45;22.45;;;;;;;;;;5032583;28;20021;-74
2022/03/25 13:07:43;;;;;;;42.22;20.77;;;;;;;;;;5032442;28;20111;-74
2022/03/25 13:10:10;;;;;;;48.42;21.00;;;;;;;;;;5032517;28;20033;-74
2022/03/25 13:12:38;;;;;;;43.85;20.48;;;;;;;;;;5034342;28;20033;-74
2022/03/25 13:15:08;;;;;;;36.13;20.48;;;;;;;;;;5052205;28;20163;-74
2022/03/25 13:17:37;;;;;;;41.85;19.73;;;;;;;;;;5052385;28;20100;-73
2022/03/25 13:20:08;;;;;;;35.05;19.25;;;;;;;;;;5052163;28;20021;-73
2022/03/25 13:22:34;;;;;;;35.67;18.73;;;;;;;;;;5052122;28;20029;-74
2022/03/25 13:25:01;;;;;;;39.15;20.17;;;;;;;;;;5052013;28;20726;-74
2022/03/25 13:27:27;;;;;;;34.72;20.45;;;;;;;;;;5051876;28;20038;-74
2022/03/25 13:29:53;;;;;;;35.58;20.95;;;;;;;;;;5051897;28;20040;-74
2022/03/25 13:32:36;;;;;;;38.97;20.63;;;;;;;;;;5051695;28;20036;-74
2022/03/25 13:35:20;;;;;;;36.35;20.73;;;;;;;;;;5051944;28;20024;-74
2022/03/25 13:37:46;;;;;;;32.65;20.02;;;;;;;;;;5051786;28;20081;-74
2022/03/25 13:40:28;;;;;;;35.35;18.88;;;;;;;;;;5051521;28;20057;-74
2022/03/25 13:42:55;;;;;;;37.22;19.50;;;;;;;;;;5051707;28;20064;-74
2022/03/25 13:45:21;;;;;;;36.53;19.90;;;;;;;;;;5051851;28;20096;-74
2022/03/25 13:48:04;;;;;;;34.50;17.58;;;;;;;;;;5051808;28;20032;-73
2022/03/25 13:50:30;;;;;;;35.15;17.60;;;;;;;;;;5051716;28;20143;-73
2022/03/25 13:53:12;;;;;;;28.98;16.80;;;;;;;;;;5051582;28;20037;-74
2022/03/25 13:55:40;;;;;;;28.85;15.73;;;;;;;;;;5051184;28;20150;-74
2022/03/25 13:58:11;;;;;;;27.05;16.85;;;;;;;;;;5051702;28;20025;-74
2022/03/25 14:00:39;;;;;;;29.52;15.63;;;;;;;;;;5051602;28;20400;-74
2022/03/25 14:03:06;;;;;;;27.77;16.80;;;;;;;;;;5051614;28;20029;-74
2022/03/25 14:05:36;;;;;;;28.83;16.45;;;;;;;;;;5051557;28;20021;-73
2022/03/25 14:08:02;;;;;;;34.70;17.42;;;;;;;;;;5051470;28;20013;-74
2022/03/25 14:10:28;;;;;;;28.90;17.25;;;;;;;;;;5050183;28;20017;-74
2022/03/25 14:12:55;;;;;;;37.38;16.13;;;;;;;;;;5051395;28;20025;-74
2022/03/25 14:15:24;;;;;;;26.70;14.30;;;;;;;;;;5051337;28;20040;-74
2022/03/25 14:17:52;;;;;;;24.60;13.98;;;;;;;;;;5051481;28;20082;-74
2022/03/25 14:20:19;;;;;;;25.63;13.88;;;;;;;;;;5051380;28;20029;-74